Roxboro, Canada
Current Conditions -  °F | °C
As of 12:27 AM on Sunday 26 Oct 2014 (Local Time) from CYUL Reporting Station
Broken Clouds Broken Clouds  
Wind Chill: 43°   Ceiling: 12000
Heat Index: 48°   Visibility: 15mi
Dew Point: 45°   Wind: 12mph
Humidity: 87%   Direction: 240°WSW
Pressure: 29.4"   Gusts: NA
Location:  45.5°N, 73.82°W
Report Text: CYUL 260427Z 24010KT 15SM FEW050 BKN120 09/07 A2940 RMK SC2AS5 SLP957
Loading
Personal Weather Stations






























Interactive Weather Map
Tropical Storm Tracking
New forecast layout! Learn more

10-Day Weather Forecast

Advertisements
Track Severe Weather on mobile